sensor_id;sensor_type;location;lat;lon;timestamp;P1;durP1;ratioP1;P2;durP2;ratioP2
31336;SDS011;22846;42.654;23.314;2024-01-30T00:02:17;4.63;;;3.65;;
31336;SDS011;22846;42.654;23.314;2024-01-30T00:04:42;4.78;;;3.90;;
31336;SDS011;22846;42.654;23.314;2024-01-30T00:07:08;4.47;;;4.00;;
31336;SDS011;22846;42.654;23.314;2024-01-30T00:09:34;5.65;;;3.85;;
31336;SDS011;22846;42.654;23.314;2024-01-30T00:11:59;4.60;;;3.50;;
31336;SDS011;22846;42.654;23.314;2024-01-30T00:14:25;5.03;;;3.47;;
31336;SDS011;22846;42.654;23.314;2024-01-30T00:16:51;4.07;;;3.15;;
31336;SDS011;22846;42.654;23.314;2024-01-30T00:19:17;3.90;;;3.20;;
31336;SDS011;22846;42.654;23.314;2024-01-30T00:21:42;3.97;;;3.20;;
31336;SDS011;22846;42.654;23.314;2024-01-30T00:24:08;3.80;;;3.15;;
31336;SDS011;22846;42.654;23.314;2024-01-30T00:26:34;4.15;;;3.15;;
31336;SDS011;22846;42.654;23.314;2024-01-30T00:28:59;3.90;;;3.20;;
31336;SDS011;22846;42.654;23.314;2024-01-30T00:31:25;3.78;;;3.10;;
31336;SDS011;22846;42.654;23.314;2024-01-30T00:33:50;3.97;;;3.20;;
31336;SDS011;22846;42.654;23.314;2024-01-30T00:36:16;3.58;;;2.90;;
31336;SDS011;22846;42.654;23.314;2024-01-30T00:38:42;3.80;;;2.88;;
31336;SDS011;22846;42.654;23.314;2024-01-30T00:41:10;4.05;;;2.90;;
31336;SDS011;22846;42.654;23.314;2024-01-30T00:43:36;3.38;;;2.78;;
31336;SDS011;22846;42.654;23.314;2024-01-30T00:46:01;4.07;;;3.00;;
31336;SDS011;22846;42.654;23.314;2024-01-30T00:48:28;3.08;;;2.50;;
31336;SDS011;22846;42.654;23.314;2024-01-30T00:50:55;3.53;;;2.72;;
31336;SDS011;22846;42.654;23.314;2024-01-30T00:53:20;5.88;;;2.92;;
31336;SDS011;22846;42.654;23.314;2024-01-30T00:55:46;3.03;;;2.60;;
31336;SDS011;22846;42.654;23.314;2024-01-30T00:58:11;3.35;;;2.55;;
31336;SDS011;22846;42.654;23.314;2024-01-30T01:00:37;2.80;;;2.42;;
31336;SDS011;22846;42.654;23.314;2024-01-30T01:03:02;2.72;;;2.22;;
31336;SDS011;22846;42.654;23.314;2024-01-30T01:05:28;3.10;;;2.50;;
31336;SDS011;22846;42.654;23.314;2024-01-30T01:07:53;2.72;;;2.35;;
31336;SDS011;22846;42.654;23.314;2024-01-30T01:10:19;2.53;;;2.30;;
31336;SDS011;22846;42.654;23.314;2024-01-30T01:12:45;2.42;;;2.10;;
31336;SDS011;22846;42.654;23.314;2024-01-30T01:15:10;3.05;;;2.20;;
31336;SDS011;22846;42.654;23.314;2024-01-30T01:17:36;2.83;;;2.10;;
31336;SDS011;22846;42.654;23.314;2024-01-30T01:20:05;2.85;;;2.30;;
31336;SDS011;22846;42.654;23.314;2024-01-30T01:22:32;4.50;;;2.25;;
31336;SDS011;22846;42.654;23.314;2024-01-30T01:24:58;2.38;;;2.17;;
31336;SDS011;22846;42.654;23.314;2024-01-30T01:27:24;2.95;;;2.17;;
31336;SDS011;22846;42.654;23.314;2024-01-30T01:29:50;2.67;;;2.03;;
31336;SDS011;22846;42.654;23.314;2024-01-30T01:32:15;2.78;;;1.90;;
31336;SDS011;22846;42.654;23.314;2024-01-30T01:34:41;2.70;;;1.92;;
31336;SDS011;22846;42.654;23.314;2024-01-30T01:37:06;2.47;;;2.00;;
31336;SDS011;22846;42.654;23.314;2024-01-30T01:39:33;2.33;;;1.90;;
31336;SDS011;22846;42.654;23.314;2024-01-30T01:41:59;2.17;;;1.88;;
31336;SDS011;22846;42.654;23.314;2024-01-30T01:44:24;2.33;;;1.90;;
31336;SDS011;22846;42.654;23.314;2024-01-30T01:46:49;2.55;;;1.85;;
31336;SDS011;22846;42.654;23.314;2024-01-30T01:49:16;2.30;;;1.85;;
31336;SDS011;22846;42.654;23.314;2024-01-30T01:51:42;2.22;;;1.98;;
31336;SDS011;22846;42.654;23.314;2024-01-30T01:54:09;1.83;;;1.60;;
31336;SDS011;22846;42.654;23.314;2024-01-30T01:56:35;2.22;;;1.80;;
31336;SDS011;22846;42.654;23.314;2024-01-30T01:59:06;2.00;;;1.70;;
31336;SDS011;22846;42.654;23.314;2024-01-30T02:01:33;2.03;;;1.60;;
31336;SDS011;22846;42.654;23.314;2024-01-30T02:04:01;2.05;;;1.75;;
31336;SDS011;22846;42.654;23.314;2024-01-30T02:06:27;2.03;;;1.70;;
31336;SDS011;22846;42.654;23.314;2024-01-30T02:08:53;1.92;;;1.60;;
31336;SDS011;22846;42.654;23.314;2024-01-30T02:11:19;2.08;;;1.50;;
31336;SDS011;22846;42.654;23.314;2024-01-30T02:13:45;2.50;;;1.60;;
31336;SDS011;22846;42.654;23.314;2024-01-30T02:16:11;2.15;;;1.80;;
31336;SDS011;22846;42.654;23.314;2024-01-30T02:18:36;2.28;;;1.60;;
31336;SDS011;22846;42.654;23.314;2024-01-30T02:21:06;1.83;;;1.52;;
31336;SDS011;22846;42.654;23.314;2024-01-30T02:23:33;1.83;;;1.60;;
31336;SDS011;22846;42.654;23.314;2024-01-30T02:25:59;1.95;;;1.63;;
31336;SDS011;22846;42.654;23.314;2024-01-30T02:28:25;2.17;;;1.42;;
31336;SDS011;22846;42.654;23.314;2024-01-30T02:30:51;1.88;;;1.27;;
31336;SDS011;22846;42.654;23.314;2024-01-30T02:33:16;2.00;;;1.50;;
31336;SDS011;22846;42.654;23.314;2024-01-30T02:35:41;3.15;;;1.65;;
31336;SDS011;22846;42.654;23.314;2024-01-30T02:38:08;1.65;;;1.52;;
31336;SDS011;22846;42.654;23.314;2024-01-30T02:40:33;2.28;;;1.63;;
31336;SDS011;22846;42.654;23.314;2024-01-30T02:42:59;1.98;;;1.50;;
31336;SDS011;22846;42.654;23.314;2024-01-30T02:45:26;1.42;;;1.33;;
31336;SDS011;22846;42.654;23.314;2024-01-30T02:47:52;1.50;;;1.40;;
31336;SDS011;22846;42.654;23.314;2024-01-30T02:50:17;2.08;;;1.40;;
31336;SDS011;22846;42.654;23.314;2024-01-30T02:52:42;1.48;;;1.38;;
31336;SDS011;22846;42.654;23.314;2024-01-30T02:55:09;2.08;;;1.50;;
31336;SDS011;22846;42.654;23.314;2024-01-30T02:57:34;1.50;;;1.40;;
31336;SDS011;22846;42.654;23.314;2024-01-30T03:00:00;2.15;;;1.52;;
31336;SDS011;22846;42.654;23.314;2024-01-30T03:02:26;1.38;;;1.20;;
31336;SDS011;22846;42.654;23.314;2024-01-30T03:04:51;1.65;;;1.50;;
31336;SDS011;22846;42.654;23.314;2024-01-30T03:07:17;1.85;;;1.40;;
31336;SDS011;22846;42.654;23.314;2024-01-30T03:09:42;1.50;;;1.23;;
31336;SDS011;22846;42.654;23.314;2024-01-30T03:12:09;1.30;;;1.17;;
31336;SDS011;22846;42.654;23.314;2024-01-30T03:14:34;1.27;;;1.17;;
31336;SDS011;22846;42.654;23.314;2024-01-30T03:17:00;1.25;;;1.05;;
31336;SDS011;22846;42.654;23.314;2024-01-30T03:19:25;1.20;;;1.10;;
31336;SDS011;22846;42.654;23.314;2024-01-30T03:21:51;1.30;;;1.10;;
31336;SDS011;22846;42.654;23.314;2024-01-30T03:24:16;1.20;;;1.10;;
31336;SDS011;22846;42.654;23.314;2024-01-30T03:26:42;1.52;;;1.17;;
31336;SDS011;22846;42.654;23.314;2024-01-30T03:29:07;1.30;;;1.20;;
31336;SDS011;22846;42.654;23.314;2024-01-30T03:31:33;1.10;;;1.00;;
31336;SDS011;22846;42.654;23.314;2024-01-30T03:33:59;1.25;;;1.05;;
31336;SDS011;22846;42.654;23.314;2024-01-30T03:36:25;1.55;;;1.05;;
31336;SDS011;22846;42.654;23.314;2024-01-30T03:38:50;1.63;;;1.00;;
31336;SDS011;22846;42.654;23.314;2024-01-30T03:41:16;1.20;;;1.10;;
31336;SDS011;22846;42.654;23.314;2024-01-30T03:43:41;1.35;;;1.20;;
31336;SDS011;22846;42.654;23.314;2024-01-30T03:46:07;1.25;;;0.93;;
31336;SDS011;22846;42.654;23.314;2024-01-30T03:48:34;1.30;;;1.20;;
31336;SDS011;22846;42.654;23.314;2024-01-30T03:50:59;1.20;;;1.10;;
31336;SDS011;22846;42.654;23.314;2024-01-30T03:53:24;1.15;;;1.05;;
31336;SDS011;22846;42.654;23.314;2024-01-30T03:55:50;1.77;;;1.00;;
31336;SDS011;22846;42.654;23.314;2024-01-30T03:58:16;0.93;;;0.90;;
31336;SDS011;22846;42.654;23.314;2024-01-30T04:00:41;1.10;;;1.00;;
31336;SDS011;22846;42.654;23.314;2024-01-30T04:03:07;1.45;;;1.10;;
31336;SDS011;22846;42.654;23.314;2024-01-30T04:05:32;2.97;;;1.00;;
31336;SDS011;22846;42.654;23.314;2024-01-30T04:07:58;1.00;;;0.90;;
31336;SDS011;22846;42.654;23.314;2024-01-30T04:10:24;1.00;;;0.90;;
31336;SDS011;22846;42.654;23.314;2024-01-30T04:12:50;1.00;;;0.88;;
31336;SDS011;22846;42.654;23.314;2024-01-30T04:15:16;1.10;;;1.00;;
31336;SDS011;22846;42.654;23.314;2024-01-30T04:17:42;1.20;;;1.02;;
31336;SDS011;22846;42.654;23.314;2024-01-30T04:20:08;0.95;;;0.93;;
31336;SDS011;22846;42.654;23.314;2024-01-30T04:22:37;1.48;;;1.00;;
31336;SDS011;22846;42.654;23.314;2024-01-30T04:25:02;1.10;;;1.00;;
31336;SDS011;22846;42.654;23.314;2024-01-30T04:27:28;1.15;;;1.00;;
31336;SDS011;22846;42.654;23.314;2024-01-30T04:29:54;1.08;;;0.98;;
31336;SDS011;22846;42.654;23.314;2024-01-30T04:32:20;0.90;;;0.90;;
31336;SDS011;22846;42.654;23.314;2024-01-30T04:34:45;1.30;;;1.08;;
31336;SDS011;22846;42.654;23.314;2024-01-30T04:37:11;0.98;;;0.88;;
31336;SDS011;22846;42.654;23.314;2024-01-30T04:39:36;1.00;;;0.80;;
31336;SDS011;22846;42.654;23.314;2024-01-30T04:42:02;0.95;;;0.90;;
31336;SDS011;22846;42.654;23.314;2024-01-30T04:44:27;1.17;;;1.00;;
31336;SDS011;22846;42.654;23.314;2024-01-30T04:46:53;0.82;;;0.80;;
31336;SDS011;22846;42.654;23.314;2024-01-30T04:49:18;0.82;;;0.70;;
31336;SDS011;22846;42.654;23.314;2024-01-30T04:51:44;0.80;;;0.70;;
31336;SDS011;22846;42.654;23.314;2024-01-30T04:54:09;0.70;;;0.70;;
31336;SDS011;22846;42.654;23.314;2024-01-30T04:56:35;0.70;;;0.70;;
31336;SDS011;22846;42.654;23.314;2024-01-30T04:59:01;1.45;;;0.70;;
31336;SDS011;22846;42.654;23.314;2024-01-30T05:01:27;0.70;;;0.70;;
31336;SDS011;22846;42.654;23.314;2024-01-30T05:03:53;3.65;;;1.35;;
31336;SDS011;22846;42.654;23.314;2024-01-30T05:06:37;4.93;;;1.48;;
31336;SDS011;22846;42.654;23.314;2024-01-30T05:09:02;3.42;;;1.05;;
31336;SDS011;22846;42.654;23.314;2024-01-30T05:11:31;2.05;;;1.00;;
31336;SDS011;22846;42.654;23.314;2024-01-30T05:13:56;1.52;;;0.90;;
31336;SDS011;22846;42.654;23.314;2024-01-30T05:16:22;6.57;;;2.30;;
31336;SDS011;22846;42.654;23.314;2024-01-30T05:18:47;3.08;;;1.77;;
31336;SDS011;22846;42.654;23.314;2024-01-30T05:21:13;4.30;;;1.70;;
31336;SDS011;22846;42.654;23.314;2024-01-30T05:23:38;8.68;;;1.58;;
31336;SDS011;22846;42.654;23.314;2024-01-30T05:26:04;4.53;;;1.52;;
31336;SDS011;22846;42.654;23.314;2024-01-30T05:28:29;5.28;;;1.33;;
31336;SDS011;22846;42.654;23.314;2024-01-30T05:30:55;5.65;;;1.60;;
31336;SDS011;22846;42.654;23.314;2024-01-30T05:33:21;7.85;;;1.58;;
31336;SDS011;22846;42.654;23.314;2024-01-30T05:35:46;11.07;;;1.55;;
31336;SDS011;22846;42.654;23.314;2024-01-30T05:38:12;6.65;;;1.70;;
31336;SDS011;22846;42.654;23.314;2024-01-30T05:40:37;8.38;;;1.83;;
31336;SDS011;22846;42.654;23.314;2024-01-30T05:43:03;10.27;;;1.55;;
31336;SDS011;22846;42.654;23.314;2024-01-30T05:45:28;17.65;;;1.90;;
31336;SDS011;22846;42.654;23.314;2024-01-30T05:47:54;4.28;;;1.30;;
31336;SDS011;22846;42.654;23.314;2024-01-30T05:50:19;6.28;;;1.50;;
31336;SDS011;22846;42.654;23.314;2024-01-30T05:52:45;6.07;;;1.98;;
31336;SDS011;22846;42.654;23.314;2024-01-30T05:55:11;3.72;;;1.20;;
31336;SDS011;22846;42.654;23.314;2024-01-30T05:57:37;7.32;;;1.60;;
31336;SDS011;22846;42.654;23.314;2024-01-30T06:00:04;7.20;;;1.30;;
31336;SDS011;22846;42.654;23.314;2024-01-30T06:02:30;5.13;;;1.90;;
31336;SDS011;22846;42.654;23.314;2024-01-30T06:04:56;4.30;;;1.50;;
31336;SDS011;22846;42.654;23.314;2024-01-30T06:07:21;4.90;;;1.88;;
31336;SDS011;22846;42.654;23.314;2024-01-30T06:09:48;4.55;;;1.48;;
31336;SDS011;22846;42.654;23.314;2024-01-30T06:12:14;6.80;;;1.38;;
31336;SDS011;22846;42.654;23.314;2024-01-30T06:14:39;2.75;;;1.40;;
31336;SDS011;22846;42.654;23.314;2024-01-30T06:17:05;7.07;;;1.45;;
31336;SDS011;22846;42.654;23.314;2024-01-30T06:19:30;3.67;;;1.17;;
31336;SDS011;22846;42.654;23.314;2024-01-30T06:21:57;5.25;;;1.70;;
31336;SDS011;22846;42.654;23.314;2024-01-30T06:24:22;4.78;;;1.30;;
31336;SDS011;22846;42.654;23.314;2024-01-30T06:26:48;5.30;;;1.60;;
31336;SDS011;22846;42.654;23.314;2024-01-30T06:29:13;4.82;;;1.60;;
31336;SDS011;22846;42.654;23.314;2024-01-30T06:31:42;2.72;;;1.40;;
31336;SDS011;22846;42.654;23.314;2024-01-30T06:34:08;2.97;;;1.35;;
31336;SDS011;22846;42.654;23.314;2024-01-30T06:36:34;4.18;;;1.23;;
31336;SDS011;22846;42.654;23.314;2024-01-30T06:39:01;3.88;;;1.30;;
31336;SDS011;22846;42.654;23.314;2024-01-30T06:41:27;4.28;;;1.30;;
31336;SDS011;22846;42.654;23.314;2024-01-30T06:43:52;4.65;;;1.10;;
31336;SDS011;22846;42.654;23.314;2024-01-30T06:46:18;3.92;;;1.63;;
31336;SDS011;22846;42.654;23.314;2024-01-30T06:48:43;4.75;;;1.40;;
31336;SDS011;22846;42.654;23.314;2024-01-30T06:51:10;2.55;;;1.20;;
31336;SDS011;22846;42.654;23.314;2024-01-30T06:53:36;2.53;;;1.02;;
31336;SDS011;22846;42.654;23.314;2024-01-30T06:56:01;2.78;;;1.23;;
31336;SDS011;22846;42.654;23.314;2024-01-30T06:58:27;1.42;;;0.95;;
31336;SDS011;22846;42.654;23.314;2024-01-30T07:00:52;2.38;;;1.05;;
31336;SDS011;22846;42.654;23.314;2024-01-30T07:03:18;3.78;;;1.38;;
31336;SDS011;22846;42.654;23.314;2024-01-30T07:05:43;5.35;;;1.40;;
31336;SDS011;22846;42.654;23.314;2024-01-30T07:08:09;5.65;;;1.20;;
31336;SDS011;22846;42.654;23.314;2024-01-30T07:10:34;2.22;;;1.17;;
31336;SDS011;22846;42.654;23.314;2024-01-30T07:13:01;3.33;;;1.05;;
31336;SDS011;22846;42.654;23.314;2024-01-30T07:15:26;3.50;;;0.90;;
31336;SDS011;22846;42.654;23.314;2024-01-30T07:17:51;1.65;;;1.02;;
31336;SDS011;22846;42.654;23.314;2024-01-30T07:20:17;2.63;;;1.00;;
31336;SDS011;22846;42.654;23.314;2024-01-30T07:22:45;2.88;;;1.20;;
31336;SDS011;22846;42.654;23.314;2024-01-30T07:25:10;4.60;;;1.13;;
31336;SDS011;22846;42.654;23.314;2024-01-30T07:27:36;1.73;;;1.20;;
31336;SDS011;22846;42.654;23.314;2024-01-30T07:30:01;1.23;;;1.00;;
31336;SDS011;22846;42.654;23.314;2024-01-30T07:32:27;2.00;;;1.10;;
31336;SDS011;22846;42.654;23.314;2024-01-30T07:34:52;3.20;;;0.88;;
31336;SDS011;22846;42.654;23.314;2024-01-30T07:37:18;2.22;;;1.20;;
31336;SDS011;22846;42.654;23.314;2024-01-30T07:39:44;2.42;;;1.15;;
31336;SDS011;22846;42.654;23.314;2024-01-30T07:42:10;1.48;;;0.88;;
31336;SDS011;22846;42.654;23.314;2024-01-30T07:44:35;2.15;;;0.90;;
31336;SDS011;22846;42.654;23.314;2024-01-30T07:47:01;1.30;;;0.98;;
31336;SDS011;22846;42.654;23.314;2024-01-30T07:49:27;2.58;;;1.02;;
31336;SDS011;22846;42.654;23.314;2024-01-30T10:01:38;1.45;;;0.98;;
31336;SDS011;22846;42.654;23.314;2024-01-30T10:04:04;1.05;;;0.93;;
31336;SDS011;22846;42.654;23.314;2024-01-30T10:06:31;1.67;;;1.30;;
31336;SDS011;22846;42.654;23.314;2024-01-30T10:08:56;3.70;;;1.20;;
31336;SDS011;22846;42.654;23.314;2024-01-30T10:11:21;1.77;;;1.27;;
31336;SDS011;22846;42.654;23.314;2024-01-30T10:13:47;1.77;;;1.20;;
31336;SDS011;22846;42.654;23.314;2024-01-30T10:16:14;1.35;;;1.10;;
31336;SDS011;22846;42.654;23.314;2024-01-30T10:18:41;1.55;;;1.10;;
31336;SDS011;22846;42.654;23.314;2024-01-30T10:21:08;1.02;;;0.93;;
31336;SDS011;22846;42.654;23.314;2024-01-30T10:23:34;1.15;;;1.05;;
31336;SDS011;22846;42.654;23.314;2024-01-30T10:25:59;1.00;;;0.82;;
31336;SDS011;22846;42.654;23.314;2024-01-30T10:28:27;1.60;;;1.30;;
31336;SDS011;22846;42.654;23.314;2024-01-30T10:31:01;1.73;;;1.00;;
31336;SDS011;22846;42.654;23.314;2024-01-30T10:33:28;1.50;;;1.10;;
31336;SDS011;22846;42.654;23.314;2024-01-30T10:36:00;2.45;;;0.98;;
31336;SDS011;22846;42.654;23.314;2024-01-30T10:38:30;1.20;;;1.10;;
31336;SDS011;22846;42.654;23.314;2024-01-30T10:40:57;1.00;;;0.90;;
31336;SDS011;22846;42.654;23.314;2024-01-30T10:43:27;1.23;;;1.00;;
31336;SDS011;22846;42.654;23.314;2024-01-30T10:46:19;1.30;;;1.00;;
31336;SDS011;22846;42.654;23.314;2024-01-30T10:48:46;2.13;;;1.00;;
31336;SDS011;22846;42.654;23.314;2024-01-30T10:51:19;1.05;;;0.90;;
31336;SDS011;22846;42.654;23.314;2024-01-30T10:53:47;1.23;;;0.85;;
31336;SDS011;22846;42.654;23.314;2024-01-30T10:56:14;1.77;;;1.20;;
31336;SDS011;22846;42.654;23.314;2024-01-30T10:58:41;0.98;;;0.90;;
31336;SDS011;22846;42.654;23.314;2024-01-30T11:01:06;1.58;;;1.10;;
31336;SDS011;22846;42.654;23.314;2024-01-30T11:03:33;1.42;;;1.20;;
31336;SDS011;22846;42.654;23.314;2024-01-30T11:06:02;1.38;;;1.20;;
31336;SDS011;22846;42.654;23.314;2024-01-30T11:08:27;1.52;;;1.00;;
31336;SDS011;22846;42.654;23.314;2024-01-30T11:10:57;1.10;;;1.00;;
31336;SDS011;22846;42.654;23.314;2024-01-30T11:13:27;1.15;;;1.00;;
31336;SDS011;22846;42.654;23.314;2024-01-30T11:15:54;2.53;;;1.00;;
31336;SDS011;22846;42.654;23.314;2024-01-30T11:18:26;1.25;;;1.00;;
31336;SDS011;22846;42.654;23.314;2024-01-30T11:21:01;1.13;;;1.00;;
31336;SDS011;22846;42.654;23.314;2024-01-30T11:23:27;1.85;;;1.35;;
31336;SDS011;22846;42.654;23.314;2024-01-30T11:25:53;1.27;;;1.10;;
31336;SDS011;22846;42.654;23.314;2024-01-30T11:28:19;1.40;;;1.13;;
31336;SDS011;22846;42.654;23.314;2024-01-30T11:30:46;1.30;;;1.02;;
31336;SDS011;22846;42.654;23.314;2024-01-30T11:33:13;1.60;;;1.15;;
31336;SDS011;22846;42.654;23.314;2024-01-30T11:35:43;1.10;;;0.98;;
31336;SDS011;22846;42.654;23.314;2024-01-30T11:38:13;1.30;;;1.05;;
31336;SDS011;22846;42.654;23.314;2024-01-30T11:40:39;1.67;;;1.20;;
31336;SDS011;22846;42.654;23.314;2024-01-30T11:43:06;1.45;;;1.20;;
31336;SDS011;22846;42.654;23.314;2024-01-30T11:45:33;1.63;;;1.27;;
31336;SDS011;22846;42.654;23.314;2024-01-30T11:48:01;1.65;;;1.25;;
31336;SDS011;22846;42.654;23.314;2024-01-30T11:50:34;2.85;;;1.33;;
31336;SDS011;22846;42.654;23.314;2024-01-30T11:53:04;1.27;;;1.00;;
31336;SDS011;22846;42.654;23.314;2024-01-30T11:55:30;1.20;;;1.10;;
31336;SDS011;22846;42.654;23.314;2024-01-30T11:57:56;1.58;;;1.13;;
31336;SDS011;22846;42.654;23.314;2024-01-30T12:00:23;1.52;;;1.00;;
31336;SDS011;22846;42.654;23.314;2024-01-30T12:02:52;2.38;;;1.30;;
31336;SDS011;22846;42.654;23.314;2024-01-30T12:05:22;1.20;;;0.98;;
31336;SDS011;22846;42.654;23.314;2024-01-30T12:07:48;1.17;;;1.02;;
31336;SDS011;22846;42.654;23.314;2024-01-30T12:10:14;2.13;;;1.10;;
31336;SDS011;22846;42.654;23.314;2024-01-30T12:12:40;1.80;;;0.93;;
31336;SDS011;22846;42.654;23.314;2024-01-30T12:15:08;2.30;;;1.25;;
31336;SDS011;22846;42.654;23.314;2024-01-30T12:17:34;1.15;;;1.02;;
31336;SDS011;22846;42.654;23.314;2024-01-30T12:22:53;1.27;;;1.00;;
31336;SDS011;22846;42.654;23.314;2024-01-30T12:25:20;1.30;;;1.20;;
31336;SDS011;22846;42.654;23.314;2024-01-30T12:27:47;1.05;;;0.93;;
31336;SDS011;22846;42.654;23.314;2024-01-30T12:30:17;1.30;;;1.10;;
31336;SDS011;22846;42.654;23.314;2024-01-30T12:32:45;1.67;;;1.10;;
31336;SDS011;22846;42.654;23.314;2024-01-30T12:35:16;1.33;;;1.02;;
31336;SDS011;22846;42.654;23.314;2024-01-30T12:37:43;1.58;;;1.27;;
31336;SDS011;22846;42.654;23.314;2024-01-30T12:40:13;1.20;;;1.10;;
31336;SDS011;22846;42.654;23.314;2024-01-30T12:42:40;1.35;;;1.10;;
31336;SDS011;22846;42.654;23.314;2024-01-30T12:45:07;1.50;;;0.98;;
31336;SDS011;22846;42.654;23.314;2024-01-30T12:47:33;1.80;;;1.20;;
31336;SDS011;22846;42.654;23.314;2024-01-30T12:49:59;1.42;;;1.13;;
31336;SDS011;22846;42.654;23.314;2024-01-30T12:52:24;1.50;;;1.13;;
31336;SDS011;22846;42.654;23.314;2024-01-30T12:54:51;2.63;;;1.33;;
31336;SDS011;22846;42.654;23.314;2024-01-30T12:57:17;1.05;;;0.90;;
31336;SDS011;22846;42.654;23.314;2024-01-30T12:59:43;1.10;;;0.98;;
31336;SDS011;22846;42.654;23.314;2024-01-30T13:02:09;1.20;;;1.00;;
31336;SDS011;22846;42.654;23.314;2024-01-30T13:04:35;1.05;;;0.90;;
31336;SDS011;22846;42.654;23.314;2024-01-30T13:07:01;1.13;;;1.02;;
31336;SDS011;22846;42.654;23.314;2024-01-30T13:09:27;1.50;;;1.20;;
31336;SDS011;22846;42.654;23.314;2024-01-30T13:11:54;2.03;;;1.40;;
31336;SDS011;22846;42.654;23.314;2024-01-30T13:14:19;1.42;;;1.20;;
31336;SDS011;22846;42.654;23.314;2024-01-30T13:16:45;1.20;;;1.10;;
31336;SDS011;22846;42.654;23.314;2024-01-30T13:19:10;1.65;;;1.23;;
31336;SDS011;22846;42.654;23.314;2024-01-30T13:21:36;1.33;;;1.20;;
31336;SDS011;22846;42.654;23.314;2024-01-30T13:24:02;1.48;;;1.20;;
31336;SDS011;22846;42.654;23.314;2024-01-30T13:26:28;1.35;;;1.20;;
31336;SDS011;22846;42.654;23.314;2024-01-30T13:28:53;1.10;;;0.90;;
31336;SDS011;22846;42.654;23.314;2024-01-30T13:31:19;1.35;;;1.20;;
31336;SDS011;22846;42.654;23.314;2024-01-30T13:33:44;1.70;;;1.30;;
31336;SDS011;22846;42.654;23.314;2024-01-30T13:36:11;1.35;;;1.10;;
31336;SDS011;22846;42.654;23.314;2024-01-30T13:38:37;1.30;;;1.20;;
31336;SDS011;22846;42.654;23.314;2024-01-30T13:41:04;1.30;;;1.20;;
31336;SDS011;22846;42.654;23.314;2024-01-30T13:43:29;1.67;;;1.20;;
31336;SDS011;22846;42.654;23.314;2024-01-30T13:45:55;1.10;;;1.00;;
31336;SDS011;22846;42.654;23.314;2024-01-30T13:48:20;1.10;;;0.90;;
31336;SDS011;22846;42.654;23.314;2024-01-30T13:50:46;1.20;;;1.00;;
31336;SDS011;22846;42.654;23.314;2024-01-30T13:53:12;1.45;;;1.25;;
31336;SDS011;22846;42.654;23.314;2024-01-30T13:55:38;1.60;;;1.05;;
31336;SDS011;22846;42.654;23.314;2024-01-30T13:58:04;1.27;;;1.00;;
31336;SDS011;22846;42.654;23.314;2024-01-30T14:00:30;1.40;;;1.20;;
31336;SDS011;22846;42.654;23.314;2024-01-30T14:02:55;1.88;;;1.40;;
31336;SDS011;22846;42.654;23.314;2024-01-30T14:05:22;1.20;;;1.10;;
31336;SDS011;22846;42.654;23.314;2024-01-30T14:07:48;1.10;;;1.00;;
31336;SDS011;22846;42.654;23.314;2024-01-30T14:10:15;1.30;;;1.00;;
31336;SDS011;22846;42.654;23.314;2024-01-30T14:12:41;1.63;;;0.90;;
31336;SDS011;22846;42.654;23.314;2024-01-30T14:15:07;1.20;;;1.10;;
31336;SDS011;22846;42.654;23.314;2024-01-30T14:17:34;1.20;;;1.10;;
31336;SDS011;22846;42.654;23.314;2024-01-30T14:20:00;1.58;;;0.90;;
31336;SDS011;22846;42.654;23.314;2024-01-30T14:22:28;1.95;;;1.00;;
31336;SDS011;22846;42.654;23.314;2024-01-30T14:24:54;1.63;;;1.20;;
31336;SDS011;22846;42.654;23.314;2024-01-30T14:27:21;0.90;;;0.90;;
31336;SDS011;22846;42.654;23.314;2024-01-30T14:29:46;1.20;;;1.10;;
31336;SDS011;22846;42.654;23.314;2024-01-30T14:32:12;7.85;;;2.35;;
31336;SDS011;22846;42.654;23.314;2024-01-30T14:34:37;4.35;;;1.27;;
31336;SDS011;22846;42.654;23.314;2024-01-30T14:37:04;11.95;;;1.48;;
31336;SDS011;22846;42.654;23.314;2024-01-30T14:39:29;9.88;;;1.55;;
31336;SDS011;22846;42.654;23.314;2024-01-30T14:41:55;8.85;;;2.22;;
31336;SDS011;22846;42.654;23.314;2024-01-30T14:44:21;8.68;;;1.50;;
31336;SDS011;22846;42.654;23.314;2024-01-30T14:46:46;7.63;;;1.63;;
31336;SDS011;22846;42.654;23.314;2024-01-30T14:49:12;11.27;;;2.10;;
31336;SDS011;22846;42.654;23.314;2024-01-30T14:51:37;6.85;;;1.45;;
31336;SDS011;22846;42.654;23.314;2024-01-30T14:54:03;5.05;;;1.30;;
31336;SDS011;22846;42.654;23.314;2024-01-30T14:56:28;9.25;;;1.65;;
31336;SDS011;22846;42.654;23.314;2024-01-30T14:58:54;12.75;;;2.40;;
31336;SDS011;22846;42.654;23.314;2024-01-30T15:01:20;18.88;;;2.35;;
31336;SDS011;22846;42.654;23.314;2024-01-30T15:03:45;9.00;;;2.35;;
31336;SDS011;22846;42.654;23.314;2024-01-30T15:06:14;22.55;;;2.30;;
31336;SDS011;22846;42.654;23.314;2024-01-30T15:08:39;21.88;;;10.00;;
31336;SDS011;22846;42.654;23.314;2024-01-30T15:11:05;47.53;;;29.45;;
31336;SDS011;22846;42.654;23.314;2024-01-30T15:13:30;32.55;;;21.88;;
31336;SDS011;22846;42.654;23.314;2024-01-30T15:15:56;41.03;;;24.33;;
31336;SDS011;22846;42.654;23.314;2024-01-30T15:18:22;51.60;;;23.23;;
31336;SDS011;22846;42.654;23.314;2024-01-30T15:20:47;54.30;;;22.58;;
31336;SDS011;22846;42.654;23.314;2024-01-30T15:25:58;37.17;;;20.35;;
31336;SDS011;22846;42.654;23.314;2024-01-30T15:28:44;30.40;;;18.85;;
31336;SDS011;22846;42.654;23.314;2024-01-30T15:31:09;27.77;;;16.23;;
31336;SDS011;22846;42.654;23.314;2024-01-30T15:33:34;29.08;;;14.63;;
31336;SDS011;22846;42.654;23.314;2024-01-30T15:36:00;24.42;;;15.45;;
31336;SDS011;22846;42.654;23.314;2024-01-30T15:38:26;21.63;;;14.30;;
31336;SDS011;22846;42.654;23.314;2024-01-30T15:40:52;19.88;;;13.75;;
31336;SDS011;22846;42.654;23.314;2024-01-30T15:43:18;21.13;;;13.35;;
31336;SDS011;22846;42.654;23.314;2024-01-30T15:45:43;18.02;;;11.95;;
31336;SDS011;22846;42.654;23.314;2024-01-30T15:48:09;16.65;;;11.25;;
31336;SDS011;22846;42.654;23.314;2024-01-30T15:50:34;21.80;;;11.75;;
31336;SDS011;22846;42.654;23.314;2024-01-30T15:53:00;19.98;;;11.15;;
31336;SDS011;22846;42.654;23.314;2024-01-30T15:55:25;21.63;;;11.88;;
31336;SDS011;22846;42.654;23.314;2024-01-30T15:57:50;17.10;;;10.73;;
31336;SDS011;22846;42.654;23.314;2024-01-30T16:00:16;18.75;;;10.98;;
31336;SDS011;22846;42.654;23.314;2024-01-30T16:02:41;17.65;;;11.07;;
31336;SDS011;22846;42.654;23.314;2024-01-30T16:05:07;16.58;;;10.80;;
31336;SDS011;22846;42.654;23.314;2024-01-30T16:07:36;16.48;;;10.32;;
31336;SDS011;22846;42.654;23.314;2024-01-30T16:10:01;15.88;;;10.32;;
31336;SDS011;22846;42.654;23.314;2024-01-30T16:12:27;15.82;;;10.85;;
31336;SDS011;22846;42.654;23.314;2024-01-30T16:14:53;14.38;;;9.73;;
31336;SDS011;22846;42.654;23.314;2024-01-30T16:17:18;20.52;;;10.77;;
31336;SDS011;22846;42.654;23.314;2024-01-30T16:19:44;14.95;;;10.18;;
31336;SDS011;22846;42.654;23.314;2024-01-30T16:22:10;17.92;;;10.13;;
31336;SDS011;22846;42.654;23.314;2024-01-30T16:24:35;18.45;;;10.07;;
31336;SDS011;22846;42.654;23.314;2024-01-30T16:27:00;15.93;;;9.77;;
31336;SDS011;22846;42.654;23.314;2024-01-30T16:29:26;17.20;;;9.43;;
31336;SDS011;22846;42.654;23.314;2024-01-30T16:31:51;14.15;;;9.82;;
31336;SDS011;22846;42.654;23.314;2024-01-30T16:34:17;14.23;;;9.85;;
31336;SDS011;22846;42.654;23.314;2024-01-30T16:36:42;16.17;;;9.88;;
31336;SDS011;22846;42.654;23.314;2024-01-30T16:39:10;16.48;;;9.38;;
31336;SDS011;22846;42.654;23.314;2024-01-30T16:41:36;13.93;;;8.93;;